createdAt,value
2023-04-16T00:00:43.827Z,64.93
2023-04-16T00:03:10.465Z,65.05
2023-04-16T00:05:37.187Z,65.81
2023-04-16T00:08:03.718Z,65.27
2023-04-16T00:10:30.351Z,65.58
2023-04-16T00:12:56.884Z,65.47
2023-04-16T00:15:23.528Z,65.57
2023-04-16T00:17:50.043Z,65.51
2023-04-16T00:20:16.663Z,65.18
2023-04-16T00:22:43.354Z,65.24
2023-04-16T00:25:09.886Z,65.15
2023-04-16T00:27:36.376Z,64.71
2023-04-16T00:30:03.589Z,65.53
2023-04-16T00:32:30.791Z,65.48
2023-04-16T00:34:57.313Z,65.48
2023-04-16T00:37:23.934Z,65.45
2023-04-16T00:39:50.962Z,65.62
2023-04-16T00:42:17.433Z,66.10
2023-04-16T00:44:43.949Z,66.16
2023-04-16T00:47:11.484Z,65.35
2023-04-16T00:49:38.119Z,65.77
2023-04-16T00:52:04.663Z,65.36
2023-04-16T00:54:32.305Z,65.64
2023-04-16T00:56:59.673Z,65.25
2023-04-16T00:59:27.551Z,65.54
2023-04-16T01:01:54.185Z,65.62
2023-04-16T01:04:21.486Z,65.86
2023-04-16T01:06:48.167Z,65.89
2023-04-16T01:09:14.672Z,65.72
2023-04-16T01:11:41.123Z,65.55
2023-04-16T01:14:07.648Z,65.50
2023-04-16T01:16:34.115Z,65.81
2023-04-16T01:19:00.576Z,65.12
2023-04-16T01:21:27.417Z,64.98
2023-04-16T01:23:53.880Z,65.20
2023-04-16T01:26:20.430Z,65.09
2023-04-16T01:28:46.969Z,64.65
2023-04-16T01:31:13.458Z,64.58
2023-04-16T01:33:40.004Z,64.05
2023-04-16T01:36:06.925Z,64.24
2023-04-16T01:38:33.377Z,64.71
2023-04-16T01:40:59.921Z,64.79
2023-04-16T01:43:26.524Z,64.49
2023-04-16T01:46:13.005Z,65.26
2023-04-16T01:48:39.526Z,65.31
2023-04-16T01:51:06.206Z,64.50
2023-04-16T01:53:32.700Z,65.35
2023-04-16T01:55:59.207Z,65.51
2023-04-16T01:58:29.516Z,65.36
2023-04-16T02:00:56.303Z,65.14
2023-04-16T02:03:24.746Z,65.68
2023-04-16T02:05:52.014Z,65.99
2023-04-16T02:08:18.555Z,66.21
2023-04-16T02:10:50.109Z,66.09
2023-04-16T02:13:16.827Z,65.88
2023-04-16T02:15:50.825Z,65.20
2023-04-16T02:18:18.439Z,65.28
2023-04-16T02:20:47.026Z,65.53
2023-04-16T02:23:15.022Z,65.60
2023-04-16T02:25:43.217Z,65.25
2023-04-16T02:28:12.248Z,65.05
2023-04-16T02:30:40.552Z,65.32
2023-04-16T02:33:09.466Z,65.42
2023-04-16T02:35:37.329Z,65.16
2023-04-16T02:38:05.057Z,64.76
2023-04-16T02:40:32.335Z,64.38
2023-04-16T02:42:58.856Z,65.42
2023-04-16T02:45:25.521Z,64.86
2023-04-16T02:47:52.369Z,65.36
2023-04-16T02:50:19.161Z,65.19
2023-04-16T02:52:45.783Z,65.32
2023-04-16T02:55:12.556Z,65.22
2023-04-16T02:57:38.990Z,65.57
2023-04-16T03:00:06.346Z,64.90
2023-04-16T03:02:32.930Z,64.69
2023-04-16T03:04:59.458Z,65.32
2023-04-16T03:07:26.232Z,64.81
2023-04-16T03:09:52.724Z,64.65
2023-04-16T03:12:19.283Z,64.81
2023-04-16T03:14:46.006Z,65.08
2023-04-16T03:17:12.561Z,65.55
2023-04-16T03:19:39.131Z,64.93
2023-04-16T03:22:05.700Z,64.68
2023-04-16T03:24:32.188Z,64.63
2023-04-16T03:26:58.894Z,64.52
2023-04-16T03:29:26.671Z,64.97
2023-04-16T03:31:53.179Z,65.16
2023-04-16T03:34:19.733Z,64.96
2023-04-16T03:36:46.321Z,65.25
2023-04-16T03:39:12.900Z,64.93
2023-04-16T03:41:39.478Z,65.49
2023-04-16T03:44:06.215Z,65.61
2023-04-16T03:46:32.776Z,65.23
2023-04-16T03:48:59.269Z,65.14
2023-04-16T03:51:26.403Z,64.92
2023-04-16T03:53:53.044Z,65.10
2023-04-16T03:56:19.531Z,65.08
2023-04-16T03:58:46.109Z,64.72
2023-04-16T04:01:12.582Z,64.72
2023-04-16T04:03:39.401Z,64.48
2023-04-16T04:06:09.583Z,64.37
2023-04-16T04:08:36.415Z,63.70
2023-04-16T04:11:02.941Z,63.80
2023-04-16T04:13:29.387Z,63.99
2023-04-16T04:15:55.894Z,64.45
2023-04-16T04:18:22.488Z,64.48
2023-04-16T04:20:48.996Z,64.50
2023-04-16T04:23:15.669Z,64.74
2023-04-16T04:25:42.137Z,65.46
2023-04-16T04:28:08.653Z,65.67
2023-04-16T04:30:35.977Z,65.59
2023-04-16T04:33:02.832Z,65.79
2023-04-16T04:35:29.393Z,66.23
2023-04-16T04:37:56.125Z,66.36
2023-04-16T04:40:22.640Z,65.86
2023-04-16T04:42:49.215Z,66.02
2023-04-16T04:45:16.116Z,66.00
2023-04-16T04:47:42.734Z,65.36
2023-04-16T04:50:09.843Z,65.92
2023-04-16T04:52:36.335Z,66.35
2023-04-16T04:55:02.998Z,65.83
2023-04-16T04:57:29.447Z,65.40
2023-04-16T04:59:55.914Z,65.75
2023-04-16T05:02:22.518Z,65.96
2023-04-16T05:04:49.101Z,65.77
2023-04-16T05:07:16.454Z,65.90
2023-04-16T05:09:42.901Z,65.60
2023-04-16T05:12:09.335Z,65.83
2023-04-16T05:14:36.337Z,65.75
2023-04-16T05:17:02.964Z,65.88
2023-04-16T05:19:29.684Z,66.02
2023-04-16T05:21:56.248Z,66.20
2023-04-16T05:24:23.093Z,65.43
2023-04-16T05:26:49.617Z,65.83
2023-04-16T05:29:16.142Z,65.89
2023-04-16T05:31:42.914Z,66.17
2023-04-16T05:34:09.362Z,65.92
2023-04-16T05:36:35.804Z,65.46
2023-04-16T05:39:02.303Z,65.34
2023-04-16T05:41:28.939Z,65.03
2023-04-16T05:43:55.596Z,65.50
2023-04-16T05:46:22.098Z,64.94
2023-04-16T05:48:48.650Z,65.06
2023-04-16T05:51:15.233Z,64.98
2023-04-16T05:53:41.965Z,65.26
2023-04-16T05:56:08.651Z,65.36
2023-04-16T05:58:35.187Z,65.30
2023-04-16T06:01:01.944Z,65.43
2023-04-16T06:03:28.544Z,65.59
2023-04-16T06:05:55.404Z,66.17
2023-04-16T06:08:22.021Z,65.84
2023-04-16T06:10:49.101Z,65.73
2023-04-16T06:13:15.643Z,65.70
2023-04-16T06:15:42.187Z,65.68
2023-04-16T06:18:08.784Z,66.25
2023-04-16T06:20:35.600Z,66.15
2023-04-16T06:23:02.102Z,65.93
2023-04-16T06:25:28.595Z,65.94
2023-04-16T06:27:55.261Z,65.79
2023-04-16T06:30:21.805Z,65.76
2023-04-16T06:32:49.821Z,65.70
2023-04-16T06:35:16.353Z,65.69
2023-04-16T06:37:42.796Z,65.46
2023-04-16T06:40:09.793Z,65.78
2023-04-16T06:42:36.635Z,65.59
2023-04-16T06:45:03.269Z,66.03
2023-04-16T06:47:30.170Z,66.17
2023-04-16T06:49:56.925Z,66.62
2023-04-16T06:52:23.424Z,66.61
2023-04-16T06:54:49.869Z,66.73
2023-04-16T06:57:16.375Z,66.39
2023-04-16T06:59:43.055Z,66.68
2023-04-16T07:02:10.774Z,66.54
2023-04-16T07:04:37.406Z,66.17
2023-04-16T07:07:03.934Z,66.04
2023-04-16T07:09:30.539Z,66.07
2023-04-16T07:11:57.094Z,66.14
2023-04-16T07:14:23.669Z,66.03
2023-04-16T07:16:50.289Z,65.82
2023-04-16T07:19:16.793Z,66.03
2023-04-16T07:21:43.726Z,66.01
2023-04-16T07:24:14.043Z,65.60
2023-04-16T07:26:40.959Z,64.96
2023-04-16T07:29:07.642Z,65.43
2023-04-16T07:31:34.289Z,64.93
2023-04-16T07:34:01.110Z,65.06
2023-04-16T07:36:28.317Z,65.38
2023-04-16T07:38:55.874Z,65.26
2023-04-16T07:41:22.433Z,65.26
2023-04-16T07:43:48.950Z,65.13
2023-04-16T07:46:16.094Z,65.52
2023-04-16T07:48:43.122Z,65.38
2023-04-16T07:51:09.648Z,65.14
2023-04-16T07:53:36.207Z,65.29
2023-04-16T07:56:02.770Z,64.92
2023-04-16T07:58:29.300Z,65.19
2023-04-16T08:00:56.187Z,65.03
2023-04-16T08:03:23.106Z,65.12
2023-04-16T08:05:49.883Z,64.67
2023-04-16T08:08:16.378Z,65.38
2023-04-16T08:10:42.930Z,65.70
2023-04-16T08:13:09.405Z,66.43
2023-04-16T08:15:35.995Z,65.49
2023-04-16T08:18:02.746Z,66.02
2023-04-16T08:20:29.212Z,66.08
2023-04-16T08:22:55.718Z,66.30
2023-04-16T08:25:24.559Z,65.92
2023-04-16T08:27:51.172Z,65.72
2023-04-16T08:30:17.772Z,65.46
2023-04-16T08:32:44.389Z,65.33
2023-04-16T08:35:10.979Z,65.74
2023-04-16T08:37:37.575Z,65.93
2023-04-16T08:40:04.377Z,66.19
2023-04-16T08:42:37.013Z,66.20
2023-04-16T08:45:08.999Z,65.20
2023-04-16T08:47:37.229Z,65.41
2023-04-16T08:50:05.644Z,65.81
2023-04-16T08:52:32.667Z,65.62
2023-04-16T08:55:14.437Z,64.42
2023-04-16T08:57:59.468Z,64.20
2023-04-16T09:00:26.625Z,64.06
2023-04-16T09:02:54.026Z,63.95
2023-04-16T09:05:25.448Z,62.66
2023-04-16T09:07:54.569Z,63.89
2023-04-16T09:10:22.047Z,63.76
2023-04-16T09:12:48.639Z,64.28
2023-04-16T09:15:15.156Z,63.89
2023-04-16T09:17:41.809Z,63.92
2023-04-16T09:20:10.810Z,63.62
2023-04-16T09:22:38.672Z,63.74
2023-04-16T09:25:06.026Z,63.17
2023-04-16T09:27:32.589Z,63.53
2023-04-16T09:29:59.480Z,63.50
2023-04-16T09:32:28.537Z,63.06
2023-04-16T09:34:57.609Z,63.45
2023-04-16T09:37:26.685Z,63.42
2023-04-16T09:40:03.735Z,63.06
2023-04-16T09:42:36.970Z,62.99
2023-04-16T09:45:05.699Z,63.16
2023-04-16T09:47:42.746Z,63.46
2023-04-16T09:50:17.733Z,63.98
2023-04-16T09:52:51.485Z,63.78
2023-04-16T09:55:23.712Z,63.44
2023-04-16T09:58:00.425Z,63.65
2023-04-16T10:00:30.598Z,62.59
2023-04-16T10:03:07.341Z,62.64
2023-04-16T10:05:34.304Z,63.21
2023-04-16T10:08:02.044Z,62.91
2023-04-16T10:10:29.791Z,62.88
2023-04-16T10:12:56.518Z,62.86
2023-04-16T10:15:23.262Z,62.19
2023-04-16T10:17:51.203Z,61.62
2023-04-16T10:20:18.352Z,62.58
2023-04-16T10:22:45.442Z,61.72
2023-04-16T10:25:13.376Z,62.11
2023-04-16T10:27:41.001Z,61.23
2023-04-16T10:30:09.320Z,61.04
2023-04-16T10:32:38.180Z,61.56
2023-04-16T10:35:05.778Z,61.70
2023-04-16T10:37:32.650Z,62.13
2023-04-16T10:40:02.812Z,61.49
2023-04-16T10:42:29.462Z,62.37
2023-04-16T10:45:00.167Z,62.84
2023-04-16T10:47:28.903Z,63.56
2023-04-16T10:49:55.433Z,63.43
2023-04-16T10:52:24.464Z,62.53
2023-04-16T10:54:53.226Z,62.14
2023-04-16T10:57:20.536Z,62.54
2023-04-16T10:59:48.926Z,63.08
2023-04-16T11:02:18.224Z,62.92
2023-04-16T11:04:47.864Z,62.73
2023-04-16T11:07:33.227Z,62.27
2023-04-16T11:10:04.823Z,63.30
2023-04-16T11:12:50.873Z,63.77
2023-04-16T11:15:19.509Z,63.18
2023-04-16T11:17:51.723Z,63.22
2023-04-16T11:20:24.682Z,63.73
2023-04-16T11:22:54.541Z,63.35
2023-04-16T11:25:23.499Z,62.80
2023-04-16T11:27:52.007Z,62.55
2023-04-16T11:30:31.686Z,62.31
2023-04-16T11:32:58.247Z,62.29
2023-04-16T11:35:25.123Z,62.10
2023-04-16T11:37:57.805Z,62.34
2023-04-16T11:40:26.100Z,61.53
2023-04-16T11:42:52.613Z,61.60
2023-04-16T11:45:19.471Z,62.49
2023-04-16T11:47:53.379Z,61.55
2023-04-16T11:50:23.558Z,61.77
2023-04-16T11:52:52.603Z,61.85
2023-04-16T11:55:20.813Z,61.66
2023-04-16T11:57:47.846Z,59.38
2023-04-16T12:00:15.324Z,60.26
2023-04-16T12:02:51.310Z,58.66
2023-04-16T12:05:39.505Z,56.94
2023-04-16T12:08:11.606Z,58.76
2023-04-16T12:10:54.882Z,58.33
2023-04-16T12:13:21.618Z,58.37
2023-04-16T12:15:56.981Z,57.94
2023-04-16T12:18:27.058Z,58.27
2023-04-16T12:20:53.968Z,57.91
2023-04-16T12:23:29.753Z,55.97
2023-04-16T12:26:02.188Z,56.61
2023-04-16T12:28:34.232Z,56.99
2023-04-16T12:31:02.282Z,57.32
2023-04-16T12:33:29.647Z,57.20
2023-04-16T12:35:56.600Z,56.67
2023-04-16T12:38:24.726Z,56.47
2023-04-16T12:40:51.711Z,56.85
2023-04-16T12:43:19.635Z,56.52
2023-04-16T12:45:46.384Z,56.61
2023-04-16T12:48:12.894Z,56.61
2023-04-16T12:50:44.169Z,56.09
2023-04-16T12:53:11.720Z,55.80
2023-04-16T12:55:38.286Z,56.26
2023-04-16T12:58:04.780Z,56.06
2023-04-16T13:00:31.325Z,55.70
2023-04-16T13:02:57.903Z,56.27
2023-04-16T13:05:24.481Z,55.60
2023-04-16T13:07:51.023Z,54.89
2023-04-16T13:10:17.647Z,54.70
2023-04-16T13:12:44.136Z,55.09
2023-04-16T13:15:11.032Z,54.94
2023-04-16T13:17:37.590Z,54.58
2023-04-16T13:20:04.604Z,54.57
2023-04-16T13:22:31.141Z,53.86
2023-04-16T13:24:57.711Z,53.13
2023-04-16T13:27:24.322Z,54.05
2023-04-16T13:29:50.812Z,54.04
2023-04-16T13:32:18.790Z,54.23
2023-04-16T13:34:45.491Z,54.43
2023-04-16T13:37:11.945Z,54.92
2023-04-16T13:39:38.461Z,54.50
2023-04-16T13:42:05.106Z,54.41
2023-04-16T13:44:31.608Z,55.35
2023-04-16T13:46:58.860Z,55.81
2023-04-16T13:49:25.631Z,54.96
2023-04-16T13:51:52.095Z,55.61
2023-04-16T13:54:18.590Z,56.27
2023-04-16T13:56:45.271Z,55.43
2023-04-16T13:59:11.883Z,55.22
2023-04-16T14:01:38.462Z,55.74
2023-04-16T14:04:06.834Z,55.66
2023-04-16T14:06:34.649Z,55.13
2023-04-16T14:09:01.856Z,55.70
2023-04-16T14:11:28.880Z,56.19
2023-04-16T14:13:55.814Z,56.14
2023-04-16T14:16:22.391Z,55.94
2023-04-16T14:18:49.034Z,56.15
2023-04-16T14:21:15.637Z,55.50
2023-04-16T14:23:42.109Z,55.19
2023-04-16T14:26:08.578Z,55.04
2023-04-16T14:28:35.650Z,54.95
2023-04-16T14:31:02.250Z,54.86
2023-04-16T14:33:28.890Z,54.25
2023-04-16T14:35:55.455Z,54.27
2023-04-16T14:38:22.021Z,54.13
2023-04-16T14:40:48.783Z,53.80
2023-04-16T14:43:15.407Z,53.59
2023-04-16T14:45:41.950Z,53.69
2023-04-16T14:48:08.599Z,54.59
2023-04-16T14:50:38.859Z,53.86
2023-04-16T14:53:05.865Z,54.50
2023-04-16T14:55:32.610Z,53.66
2023-04-16T14:57:59.702Z,53.83
2023-04-16T15:00:27.226Z,54.33
2023-04-16T15:02:55.561Z,54.65
2023-04-16T15:05:22.309Z,53.83
2023-04-16T15:07:48.912Z,53.50
2023-04-16T15:10:15.473Z,53.64
2023-04-16T15:12:42.030Z,54.86
2023-04-16T15:15:09.459Z,54.32
2023-04-16T15:17:36.379Z,54.46
2023-04-16T15:20:05.842Z,54.61
2023-04-16T15:22:32.316Z,54.08
2023-04-16T15:24:58.802Z,54.65
2023-04-16T15:27:25.542Z,54.67
2023-04-16T15:29:53.801Z,54.67
2023-04-16T15:32:20.325Z,54.78
2023-04-16T15:34:46.836Z,54.92
2023-04-16T15:37:13.399Z,54.38
2023-04-16T15:39:40.023Z,54.14
2023-04-16T15:42:07.617Z,54.07
2023-04-16T15:44:34.758Z,53.85
2023-04-16T15:47:01.293Z,54.30
2023-04-16T15:49:28.001Z,54.27
2023-04-16T15:51:55.641Z,54.17
2023-04-16T15:54:22.231Z,54.68
2023-04-16T15:56:48.832Z,55.21
2023-04-16T15:59:15.432Z,55.50
2023-04-16T16:01:41.958Z,55.42
2023-04-16T16:04:08.870Z,55.02
2023-04-16T16:06:37.821Z,54.89
2023-04-16T16:09:04.902Z,54.89
2023-04-16T16:11:32.348Z,55.62
2023-04-16T16:14:01.031Z,55.83
2023-04-16T16:16:28.665Z,55.79
2023-04-16T16:18:55.569Z,56.43
2023-04-16T16:21:22.036Z,56.60
2023-04-16T16:23:48.564Z,56.17
2023-04-16T16:26:15.105Z,57.01
2023-04-16T16:28:43.772Z,57.16
2023-04-16T16:31:12.129Z,57.09
2023-04-16T16:33:40.387Z,57.27
2023-04-16T16:36:11.196Z,57.03
2023-04-16T16:38:39.927Z,56.96
2023-04-16T16:41:07.150Z,56.56
2023-04-16T16:43:35.815Z,56.34
2023-04-16T16:46:02.369Z,56.62
2023-04-16T16:48:29.139Z,57.14
2023-04-16T16:50:55.880Z,57.12
2023-04-16T16:53:22.388Z,56.52
2023-04-16T16:55:48.864Z,56.60
2023-04-16T16:58:15.403Z,57.31
2023-04-16T17:00:42.011Z,57.49
2023-04-16T17:03:09.381Z,57.92
2023-04-16T17:05:36.655Z,57.77
2023-04-16T17:08:03.269Z,57.47
2023-04-16T17:10:29.776Z,57.66
2023-04-16T17:12:56.247Z,58.11
2023-04-16T17:15:23.046Z,58.53
2023-04-16T17:17:49.646Z,59.22
2023-04-16T17:20:16.214Z,58.95
2023-04-16T17:22:42.869Z,58.35
2023-04-16T17:25:10.068Z,57.78
2023-04-16T17:27:36.694Z,57.50
2023-04-16T17:30:05.264Z,57.98
2023-04-16T17:32:33.025Z,58.42
2023-04-16T17:35:03.833Z,57.96
2023-04-16T17:37:30.354Z,58.15
2023-04-16T17:39:56.870Z,57.60
2023-04-16T17:42:24.470Z,57.94
2023-04-16T17:44:51.010Z,57.23
2023-04-16T17:47:17.464Z,57.64
2023-04-16T17:49:44.330Z,57.11
2023-04-16T17:52:10.861Z,56.93
2023-04-16T17:54:37.350Z,57.59
2023-04-16T17:57:04.008Z,57.91
2023-04-16T17:59:30.502Z,58.20
2023-04-16T18:01:57.206Z,57.26
2023-04-16T18:04:23.966Z,57.23
2023-04-16T18:06:50.751Z,57.87
2023-04-16T18:09:18.967Z,58.04
2023-04-16T18:11:45.538Z,58.34
2023-04-16T18:14:14.020Z,58.53
2023-04-16T18:16:41.744Z,58.63
2023-04-16T18:19:08.481Z,58.95
2023-04-16T18:21:35.637Z,59.61
2023-04-16T18:24:03.344Z,59.70
2023-04-16T18:26:30.097Z,59.77
2023-04-16T18:28:56.928Z,59.67
2023-04-16T18:31:23.510Z,59.71
2023-04-16T18:33:57.244Z,59.72
2023-04-16T18:36:26.528Z,59.69
2023-04-16T18:39:01.502Z,59.41
2023-04-16T18:41:30.426Z,59.51
2023-04-16T18:43:57.336Z,59.64
2023-04-16T18:46:24.108Z,59.14
2023-04-16T18:48:50.866Z,59.65
2023-04-16T18:51:17.407Z,59.90
2023-04-16T18:53:45.695Z,60.31
2023-04-16T18:56:12.850Z,60.57
2023-04-16T18:58:39.554Z,61.53
2023-04-16T19:01:10.758Z,61.08
2023-04-16T19:03:37.976Z,61.05
2023-04-16T19:06:07.878Z,60.66
2023-04-16T19:08:34.323Z,60.16
2023-04-16T19:11:00.918Z,60.29
2023-04-16T19:13:27.453Z,60.29
2023-04-16T19:16:00.982Z,60.37
2023-04-16T19:18:27.713Z,60.50
2023-04-16T19:21:01.120Z,60.25
2023-04-16T19:23:28.890Z,60.69
2023-04-16T19:25:59.152Z,61.14
2023-04-16T19:28:26.183Z,61.23
2023-04-16T19:30:53.889Z,60.79
2023-04-16T19:33:20.649Z,61.33
2023-04-16T19:35:47.581Z,61.27
2023-04-16T19:38:14.415Z,60.92
2023-04-16T19:40:45.327Z,60.60
2023-04-16T19:43:12.141Z,61.63
2023-04-16T19:45:53.301Z,61.47
2023-04-16T19:48:21.343Z,62.06
2023-04-16T19:50:48.247Z,62.11
2023-04-16T19:53:16.808Z,62.88
2023-04-16T19:55:43.336Z,62.50
2023-04-16T19:58:09.918Z,62.43
2023-04-16T20:00:40.636Z,62.22
2023-04-16T20:03:07.201Z,62.75
2023-04-16T20:05:33.875Z,62.62
2023-04-16T20:08:00.510Z,62.29
2023-04-16T20:10:27.703Z,62.57
2023-04-16T20:12:54.216Z,62.65
2023-04-16T20:15:20.828Z,63.28
2023-04-16T20:17:47.458Z,63.05
2023-04-16T20:20:15.587Z,62.27
2023-04-16T20:22:43.295Z,61.89
2023-04-16T20:25:10.157Z,61.36
2023-04-16T20:27:36.756Z,61.24
2023-04-16T20:30:05.312Z,61.72
2023-04-16T20:32:31.863Z,61.94
2023-04-16T20:34:58.400Z,61.71
2023-04-16T20:37:24.944Z,61.36
2023-04-16T20:39:53.988Z,62.26
2023-04-16T20:42:21.937Z,63.02
2023-04-16T20:44:56.170Z,63.23
2023-04-16T20:47:22.977Z,62.88
2023-04-16T20:49:49.619Z,62.77
2023-04-16T20:52:16.724Z,62.40
2023-04-16T20:54:43.269Z,62.67
2023-04-16T20:57:09.856Z,62.52
2023-04-16T20:59:36.919Z,62.45
2023-04-16T21:02:03.682Z,62.48
2023-04-16T21:04:30.412Z,62.91
2023-04-16T21:06:57.091Z,62.73
2023-04-16T21:09:23.726Z,62.56
2023-04-16T21:11:50.235Z,62.42
2023-04-16T21:14:16.675Z,62.22
2023-04-16T21:16:43.117Z,62.34
2023-04-16T21:19:09.893Z,62.21
2023-04-16T21:21:38.162Z,62.04
2023-04-16T21:24:05.024Z,62.35
2023-04-16T21:26:31.536Z,62.65
2023-04-16T21:28:58.072Z,62.88
2023-04-16T21:31:24.615Z,63.56
2023-04-16T21:33:51.132Z,62.63
2023-04-16T21:36:17.659Z,62.83
2023-04-16T21:38:44.188Z,62.80
2023-04-16T21:41:10.724Z,62.48
2023-04-16T21:43:37.240Z,62.46
2023-04-16T21:46:03.886Z,62.32
2023-04-16T21:48:30.496Z,62.52
2023-04-16T21:51:06.286Z,63.14
2023-04-16T21:53:33.468Z,63.25
2023-04-16T21:55:59.999Z,63.07
2023-04-16T21:58:26.583Z,63.02
2023-04-16T22:00:53.219Z,63.30
2023-04-16T22:03:26.095Z,63.11
2023-04-16T22:06:03.175Z,62.71
2023-04-16T22:08:30.212Z,62.81
2023-04-16T22:11:02.128Z,62.71
2023-04-16T22:13:32.328Z,62.85
2023-04-16T22:16:03.178Z,62.96
2023-04-16T22:18:33.517Z,62.77
2023-04-16T22:21:00.904Z,62.79
2023-04-16T22:23:27.566Z,63.10
2023-04-16T22:25:56.026Z,63.01
2023-04-16T22:28:23.261Z,63.07
2023-04-16T22:30:51.070Z,63.23
2023-04-16T22:33:17.634Z,62.76
2023-04-16T22:35:44.417Z,62.95
2023-04-16T22:38:10.914Z,62.83
2023-04-16T22:40:37.497Z,62.75
2023-04-16T22:43:04.653Z,62.62
2023-04-16T22:45:31.204Z,62.82
2023-04-16T22:47:57.753Z,63.04
2023-04-16T22:50:24.253Z,63.17
2023-04-16T22:52:50.857Z,63.72
2023-04-16T22:55:17.350Z,63.61
2023-04-16T22:57:43.868Z,63.86
2023-04-16T23:00:15.682Z,63.48
2023-04-16T23:02:42.913Z,63.81
2023-04-16T23:05:09.543Z,64.41
2023-04-16T23:07:36.068Z,64.83
2023-04-16T23:10:03.085Z,64.51
2023-04-16T23:12:29.580Z,64.91
2023-04-16T23:14:56.284Z,65.31
2023-04-16T23:17:22.918Z,64.54
2023-04-16T23:19:49.469Z,64.64
2023-04-16T23:22:15.948Z,63.98
2023-04-16T23:24:42.409Z,63.57
2023-04-16T23:27:08.856Z,63.96
2023-04-16T23:29:35.336Z,63.80
2023-04-16T23:32:01.804Z,64.11
2023-04-16T23:34:28.288Z,63.74
2023-04-16T23:36:54.733Z,63.47
2023-04-16T23:39:21.219Z,63.31
2023-04-16T23:41:47.795Z,63.56
2023-04-16T23:44:14.268Z,63.15
2023-04-16T23:46:40.911Z,63.33
2023-04-16T23:49:07.683Z,63.64
2023-04-16T23:51:34.263Z,63.77
2023-04-16T23:54:00.721Z,63.95
2023-04-16T23:56:27.242Z,64.74
2023-04-16T23:58:53.692Z,63.76
